Impacts TAF Board INFO
FOR SITUATIONAL AWARENESS. NOT TO BE USED FOR FLIGHT PLANNING PURPOSES.
IDs:

KIAH - Houston/Bush Intl, TX, US

Issued at 0300 UTC 23 May 2018
Updated at 0301 UTC 23 May 2018
Potential Impact None Slight Moderate High
Time<<24/03Z 24/04Z 24/05Z 24/06Z 24/07Z 24/08Z 24/09Z 24/10Z 24/11Z 24/12Z 24/13Z 24/14Z 24/15Z
Type PRVL PRVL PRVL
VIS >6 >6 >6
CIG 250 250 250
Cover BKN BKN BKN
FltCat VFR VFR VFR
WX -- -- --
WDir 140 140 140
WSpd 4 4 4
WGst -- -- --

Raw TAF
KIAH 230300Z 2303/2406 15003KT P6SM FEW035 SCT250
  FM230900 09004KT P6SM SCT020 SCT250
  FM231900 12006KT P6SM VCSH SCT035
  FM232200 14009KT P6SM VCTS SCT040CB
  FM240200 14004KT P6SM BKN250


METAR Board
Radar Display
Forecast Discussion

FOR SITUATIONAL AWARENESS. NOT TO BE USED FOR FLIGHT PLANNING PURPOSES.